KAWM/AWM METAR and TAF weather

Enter ICAO airport designator
Station Type Date Time Source
KAWM METAR 2019/06/24 22:53 UTC NOAA

KAWM 242253Z AUTO 24006KT 10SM FEW033 28/21 A2988 RMK AO2 SLP113 T02830211


Station Type Date Time Source
KAWM Decoded METAR 2019/06/24 22:53 UTC NOAA

WEST MEMPHIS MUNICIPAL AIRPORT, AR, United States (KAWM) 35-08N 090-14W
Jun 24, 2019 - 06:53 PM EDT / 2019.06.24 2253 UTC
Wind: from the WSW (240 degrees) at 7 MPH (6 KT):0
Visibility: 10 mile(s):0
Sky conditions: mostly clear
Temperature: 82.9 F (28.3 C)
Dew Point: 70.0 F (21.1 C)
Relative Humidity: 65%
Pressure (altimeter): 29.88 in. Hg (1011 hPa)
ob: KAWM 242253Z AUTO 24006KT 10SM FEW033 28/21 A2988 RMK AO2 SLP113 T02830211
cycle: 23

Station Type Date Time Source
KAWM TAF UTC NOAA

Error!

Example: see airport list